createdAt,value
2022-09-03T00:00:37.689Z,18.20
2022-09-03T00:03:32.017Z,18.20
2022-09-03T00:06:27.077Z,18.20
2022-09-03T00:09:22.237Z,18.20
2022-09-03T00:12:31.893Z,18.10
2022-09-03T00:15:20.864Z,18.00
2022-09-03T00:18:20.705Z,18.00
2022-09-03T00:21:27.649Z,18.00
2022-09-03T00:24:19.048Z,18.00
2022-09-03T00:27:11.561Z,17.90
2022-09-03T00:30:13.753Z,17.90
2022-09-03T00:33:29.852Z,17.90
2022-09-03T00:36:22.805Z,17.80
2022-09-03T00:39:23.190Z,17.80
2022-09-03T00:42:46.181Z,17.70
2022-09-03T00:45:50.947Z,17.70
2022-09-03T00:49:07.613Z,17.60
2022-09-03T00:52:18.924Z,17.60
2022-09-03T00:55:16.603Z,17.50
2022-09-03T00:58:30.143Z,17.50
2022-09-03T01:01:34.533Z,17.50
2022-09-03T01:04:31.851Z,17.40
2022-09-03T01:07:35.113Z,17.40
2022-09-03T01:10:31.824Z,17.40
2022-09-03T01:13:23.828Z,17.40
2022-09-03T01:16:45.142Z,17.40
2022-09-03T01:20:07.004Z,17.40
2022-09-03T01:23:04.776Z,17.30
2022-09-03T01:25:54.758Z,17.30
2022-09-03T01:29:13.168Z,17.40
2022-09-03T01:32:28.617Z,17.40
2022-09-03T01:35:31.021Z,17.40
2022-09-03T01:38:40.967Z,17.50
2022-09-03T01:42:20.679Z,17.60
2022-09-03T01:45:32.291Z,17.60
2022-09-03T01:48:35.025Z,17.60
2022-09-03T01:51:24.187Z,17.70
2022-09-03T01:54:47.503Z,17.70
2022-09-03T01:57:56.184Z,17.70
2022-09-03T02:00:44.081Z,17.70
2022-09-03T02:03:41.238Z,17.70
2022-09-03T02:06:31.855Z,17.70
2022-09-03T02:09:23.392Z,17.70
2022-09-03T02:12:19.000Z,17.70
2022-09-03T02:15:10.765Z,17.60
2022-09-03T02:18:00.140Z,17.60
2022-09-03T02:20:48.016Z,17.60
2022-09-03T02:23:33.567Z,17.60
2022-09-03T02:26:22.981Z,17.60
2022-09-03T02:29:08.787Z,17.60
2022-09-03T02:31:53.927Z,17.60
2022-09-03T02:34:39.459Z,17.50
2022-09-03T02:37:28.069Z,17.50
2022-09-03T02:40:13.465Z,17.50
2022-09-03T02:43:01.415Z,17.40
2022-09-03T02:45:49.256Z,17.40
2022-09-03T02:48:38.379Z,17.30
2022-09-03T02:51:23.605Z,17.20
2022-09-03T02:54:11.120Z,17.20
2022-09-03T02:56:56.708Z,17.20
2022-09-03T02:59:46.123Z,17.10
2022-09-03T03:02:33.364Z,17.00
2022-09-03T03:05:48.741Z,17.00
2022-09-03T03:08:35.144Z,16.90
2022-09-03T03:11:23.097Z,16.80
2022-09-03T03:14:08.974Z,16.80
2022-09-03T03:16:54.430Z,16.80
2022-09-03T03:19:42.747Z,16.70
2022-09-03T03:22:29.012Z,16.70
2022-09-03T03:25:14.345Z,16.70
2022-09-03T03:28:01.256Z,16.60
2022-09-03T03:30:48.862Z,16.60
2022-09-03T03:33:34.784Z,16.50
2022-09-03T03:36:22.945Z,16.50
2022-09-03T03:39:11.187Z,16.50
2022-09-03T03:41:56.572Z,16.40
2022-09-03T03:44:44.064Z,16.40
2022-09-03T03:47:31.108Z,16.40
2022-09-03T03:50:19.703Z,16.30
2022-09-03T03:53:04.967Z,16.30
2022-09-03T03:55:58.864Z,16.20
2022-09-03T03:58:45.181Z,16.20
2022-09-03T04:01:30.464Z,16.10
2022-09-03T04:04:19.284Z,16.10
2022-09-03T04:07:04.858Z,16.00
2022-09-03T04:10:17.755Z,16.00
2022-09-03T04:13:03.172Z,16.00
2022-09-03T04:15:48.565Z,16.00
2022-09-03T04:18:38.047Z,15.90
2022-09-03T04:21:26.607Z,15.90
2022-09-03T04:24:14.375Z,15.90
2022-09-03T04:26:59.654Z,15.90
2022-09-03T04:29:44.744Z,15.90
2022-09-03T04:32:49.241Z,15.80
2022-09-03T04:35:38.307Z,15.80
2022-09-03T04:38:24.258Z,15.80
2022-09-03T04:41:14.761Z,15.70
2022-09-03T04:44:00.433Z,15.70
2022-09-03T04:46:47.791Z,15.70
2022-09-03T04:49:34.587Z,15.60
2022-09-03T04:52:20.611Z,15.60
2022-09-03T04:55:10.944Z,15.60
2022-09-03T04:57:56.102Z,15.60
2022-09-03T05:00:41.735Z,15.50
2022-09-03T05:03:28.586Z,15.50
2022-09-03T05:06:17.305Z,15.50
2022-09-03T05:09:03.283Z,15.50
2022-09-03T05:11:51.220Z,15.50
2022-09-03T05:14:39.559Z,15.40
2022-09-03T05:17:25.275Z,15.40
2022-09-03T05:20:11.110Z,15.40
2022-09-03T05:22:57.514Z,15.40
2022-09-03T05:25:42.874Z,15.40
2022-09-03T05:28:30.323Z,15.50
2022-09-03T05:31:23.979Z,15.50
2022-09-03T05:34:10.638Z,15.50
2022-09-03T05:37:04.399Z,15.50
2022-09-03T05:39:49.828Z,15.60
2022-09-03T05:42:39.052Z,15.60
2022-09-03T05:45:24.776Z,15.70
2022-09-03T05:48:10.113Z,15.70
2022-09-03T05:51:16.784Z,15.70
2022-09-03T05:54:03.879Z,15.80
2022-09-03T05:56:49.731Z,15.80
2022-09-03T05:59:34.906Z,15.90
2022-09-03T06:02:20.337Z,16.00
2022-09-03T06:05:09.002Z,16.00
2022-09-03T06:07:56.539Z,16.00
2022-09-03T06:10:42.129Z,16.10
2022-09-03T06:13:27.908Z,16.20
2022-09-03T06:16:13.661Z,16.20
2022-09-03T06:19:01.054Z,16.30
2022-09-03T06:21:47.145Z,16.30
2022-09-03T06:24:32.831Z,16.40
2022-09-03T06:27:20.481Z,16.50
2022-09-03T06:30:09.932Z,16.50
2022-09-03T06:32:55.376Z,16.60
2022-09-03T06:35:43.165Z,16.70
2022-09-03T06:38:32.004Z,16.80
2022-09-03T06:41:26.264Z,16.80
2022-09-03T06:44:12.453Z,16.90
2022-09-03T06:47:01.639Z,17.00
2022-09-03T06:49:49.383Z,17.00
2022-09-03T06:52:34.519Z,17.10
2022-09-03T06:55:20.155Z,17.20
2022-09-03T06:58:05.461Z,17.30
2022-09-03T07:00:53.153Z,17.30
2022-09-03T07:03:40.101Z,17.40
2022-09-03T07:06:27.569Z,17.40
2022-09-03T07:09:15.036Z,17.50
2022-09-03T07:12:01.400Z,17.60
2022-09-03T07:14:47.456Z,17.60
2022-09-03T07:17:37.060Z,17.70
2022-09-03T07:20:22.734Z,17.80
2022-09-03T07:23:08.499Z,17.90
2022-09-03T07:25:59.886Z,18.00
2022-09-03T07:28:48.986Z,18.00
2022-09-03T07:31:37.258Z,18.10
2022-09-03T07:34:26.766Z,18.10
2022-09-03T07:37:14.966Z,18.20
2022-09-03T07:40:02.956Z,18.30
2022-09-03T07:42:53.250Z,18.50
2022-09-03T07:45:40.643Z,18.60
2022-09-03T07:48:25.869Z,18.70
2022-09-03T07:51:11.475Z,18.80
2022-09-03T07:54:00.450Z,18.90
2022-09-03T07:56:45.955Z,18.90
2022-09-03T07:59:34.601Z,19.00
2022-09-03T08:02:21.968Z,19.10
2022-09-03T08:05:07.847Z,19.10
2022-09-03T08:07:53.466Z,19.10
2022-09-03T08:10:42.459Z,19.30
2022-09-03T08:13:28.275Z,19.30
2022-09-03T08:16:15.657Z,19.40
2022-09-03T08:19:00.911Z,19.50
2022-09-03T08:21:47.352Z,19.60
2022-09-03T08:24:34.421Z,19.60
2022-09-03T08:27:26.103Z,19.60
2022-09-03T08:30:11.897Z,19.70
2022-09-03T08:32:57.684Z,19.80
2022-09-03T08:35:43.205Z,19.80
2022-09-03T08:38:28.384Z,19.80
2022-09-03T08:41:22.547Z,19.90
2022-09-03T08:44:37.824Z,19.90
2022-09-03T08:47:34.812Z,20.00
2022-09-03T08:50:34.310Z,20.00
2022-09-03T08:53:31.639Z,20.10
2022-09-03T08:56:38.874Z,20.20
2022-09-03T08:59:27.063Z,20.30
2022-09-03T09:02:31.937Z,20.40
2022-09-03T09:05:52.267Z,20.50
2022-09-03T09:09:02.932Z,20.60
2022-09-03T09:12:01.051Z,20.70
2022-09-03T09:15:12.696Z,20.80
2022-09-03T09:18:08.102Z,20.90
2022-09-03T09:21:15.658Z,21.00
2022-09-03T09:24:12.094Z,21.10
2022-09-03T09:27:04.319Z,21.20
2022-09-03T09:29:50.683Z,21.30
2022-09-03T09:32:40.688Z,21.40
2022-09-03T09:35:27.079Z,21.50
2022-09-03T09:38:16.446Z,21.50
2022-09-03T09:41:30.036Z,21.60
2022-09-03T09:44:21.650Z,21.60
2022-09-03T09:47:12.955Z,21.70
2022-09-03T09:50:02.706Z,21.80
2022-09-03T09:52:48.268Z,21.90
2022-09-03T09:55:38.952Z,22.10
2022-09-03T09:58:27.850Z,22.10
2022-09-03T10:01:26.271Z,22.30
2022-09-03T10:04:34.395Z,22.30
2022-09-03T10:07:25.874Z,22.40
2022-09-03T10:10:14.942Z,22.40
2022-09-03T10:13:08.498Z,22.50
2022-09-03T10:15:56.840Z,22.60
2022-09-03T10:19:12.849Z,22.80
2022-09-03T10:22:11.224Z,22.90
2022-09-03T10:25:03.280Z,23.10
2022-09-03T10:27:48.839Z,23.20
2022-09-03T10:30:48.443Z,23.30
2022-09-03T10:33:53.830Z,23.30
2022-09-03T10:37:16.903Z,23.30
2022-09-03T10:40:13.297Z,23.50
2022-09-03T10:43:30.044Z,23.60
2022-09-03T10:46:34.230Z,23.80
2022-09-03T10:50:04.842Z,23.90
2022-09-03T10:53:06.961Z,24.00
2022-09-03T10:56:13.045Z,24.30
2022-09-03T10:59:27.235Z,24.50
2022-09-03T11:02:27.184Z,24.80
2022-09-03T11:05:20.692Z,25.10
2022-09-03T11:08:10.291Z,25.40
2022-09-03T11:11:05.378Z,25.60
2022-09-03T11:14:05.968Z,25.90
2022-09-03T11:17:07.770Z,26.30
2022-09-03T11:20:03.060Z,26.80
2022-09-03T11:22:55.851Z,27.20
2022-09-03T11:25:46.974Z,27.60
2022-09-03T11:28:42.224Z,28.00
2022-09-03T11:31:41.842Z,28.40
2022-09-03T11:34:32.249Z,28.80
2022-09-03T11:37:27.493Z,29.20
2022-09-03T11:40:18.256Z,29.70
2022-09-03T11:43:27.372Z,30.10
2022-09-03T11:46:21.890Z,30.50
2022-09-03T11:49:13.617Z,30.90
2022-09-03T11:52:06.500Z,31.20
2022-09-03T11:54:52.095Z,31.50
2022-09-03T11:57:45.517Z,31.90
2022-09-03T12:00:31.300Z,32.20
2022-09-03T12:03:17.912Z,32.60
2022-09-03T12:06:41.641Z,32.80
2022-09-03T12:09:32.648Z,33.10
2022-09-03T12:12:23.894Z,33.60
2022-09-03T12:15:18.517Z,33.90
2022-09-03T12:18:21.680Z,34.30
2022-09-03T12:21:08.998Z,34.70
2022-09-03T12:23:58.277Z,35.00
2022-09-03T12:26:44.654Z,35.00
2022-09-03T12:29:32.140Z,35.30
2022-09-03T12:32:18.601Z,35.40
2022-09-03T12:38:26.056Z,36.00
2022-09-03T12:41:28.866Z,36.10
2022-09-03T12:44:24.509Z,36.30
2022-09-03T12:50:27.165Z,36.80
2022-09-03T12:53:28.055Z,36.70
2022-09-03T12:56:16.838Z,36.90
2022-09-03T12:59:13.929Z,37.10
2022-09-03T13:02:06.744Z,37.30
2022-09-03T13:04:53.026Z,37.50
2022-09-03T13:07:38.932Z,37.70
2022-09-03T13:10:33.612Z,38.10
2022-09-03T13:13:24.978Z,38.30
2022-09-03T13:16:45.429Z,38.60
2022-09-03T13:19:46.983Z,38.80
2022-09-03T13:22:57.588Z,39.10
2022-09-03T13:25:42.882Z,39.30
2022-09-03T13:28:49.457Z,39.50
2022-09-03T13:31:43.252Z,39.50
2022-09-03T13:34:33.424Z,39.80
2022-09-03T13:37:37.794Z,39.90
2022-09-03T13:40:41.295Z,40.20
2022-09-03T13:43:47.668Z,40.40
2022-09-03T13:46:56.083Z,40.50
2022-09-03T13:50:17.227Z,40.70
2022-09-03T13:53:35.770Z,41.00
2022-09-03T13:57:03.834Z,41.30
2022-09-03T14:00:00.048Z,41.20
2022-09-03T14:03:17.601Z,41.30
2022-09-03T14:06:03.136Z,41.40
2022-09-03T14:09:10.745Z,41.20
2022-09-03T14:12:00.806Z,41.20
2022-09-03T14:15:01.934Z,41.40
2022-09-03T14:17:59.935Z,41.90
2022-09-03T14:20:54.719Z,42.30
2022-09-03T14:23:55.071Z,42.40
2022-09-03T14:26:54.652Z,42.30
2022-09-03T14:29:54.315Z,42.30
2022-09-03T14:33:08.176Z,42.20
2022-09-03T14:36:06.866Z,42.20
2022-09-03T14:39:32.607Z,42.30
2022-09-03T14:42:40.747Z,42.50
2022-09-03T14:45:49.091Z,42.50
2022-09-03T14:48:45.816Z,42.30
2022-09-03T14:51:58.364Z,42.30
2022-09-03T14:55:13.754Z,42.30
2022-09-03T14:58:34.639Z,42.60
2022-09-03T15:01:37.644Z,42.80
2022-09-03T15:05:00.128Z,42.80
2022-09-03T15:07:58.794Z,42.90
2022-09-03T15:11:02.032Z,43.30
2022-09-03T15:14:09.038Z,43.50
2022-09-03T15:17:39.816Z,43.50
2022-09-03T15:20:32.956Z,43.70
2022-09-03T15:23:51.795Z,43.80
2022-09-03T15:27:14.608Z,44.00
2022-09-03T15:30:10.222Z,43.90
2022-09-03T15:32:55.404Z,44.00
2022-09-03T15:36:00.023Z,44.10
2022-09-03T15:38:54.398Z,44.30
2022-09-03T15:42:06.590Z,44.50
2022-09-03T15:44:54.917Z,44.60
2022-09-03T15:47:52.017Z,44.70
2022-09-03T15:50:55.763Z,44.80
2022-09-03T15:53:55.758Z,44.80
2022-09-03T15:56:58.773Z,44.60
2022-09-03T16:00:06.177Z,44.80
2022-09-03T16:03:09.443Z,44.60
2022-09-03T16:06:02.873Z,44.50
2022-09-03T16:09:03.544Z,44.00
2022-09-03T16:12:16.830Z,43.90
2022-09-03T16:15:37.488Z,43.80
2022-09-03T16:18:34.860Z,43.80
2022-09-03T16:21:51.406Z,43.80
2022-09-03T16:25:02.979Z,43.50
2022-09-03T16:28:16.975Z,43.20
2022-09-03T16:31:30.502Z,43.10
2022-09-03T16:34:40.629Z,43.00
2022-09-03T16:37:41.899Z,43.00
2022-09-03T16:40:40.254Z,42.90
2022-09-03T16:43:47.807Z,42.80
2022-09-03T16:47:00.179Z,42.80
2022-09-03T16:50:01.810Z,42.70
2022-09-03T16:53:15.067Z,42.50
2022-09-03T16:56:33.827Z,42.40
2022-09-03T16:59:36.688Z,42.40
2022-09-03T17:02:49.900Z,42.20
2022-09-03T17:06:19.899Z,42.10
2022-09-03T17:09:35.615Z,42.00
2022-09-03T17:12:50.215Z,41.70
2022-09-03T17:15:54.551Z,41.40
2022-09-03T17:18:49.698Z,41.00
2022-09-03T17:22:12.715Z,40.60
2022-09-03T17:25:08.032Z,39.90
2022-09-03T17:28:34.212Z,39.10
2022-09-03T17:31:56.056Z,38.30
2022-09-03T17:35:09.648Z,37.50
2022-09-03T17:38:27.785Z,36.70
2022-09-03T17:41:20.435Z,35.90
2022-09-03T17:44:16.848Z,35.20
2022-09-03T17:47:07.330Z,34.60
2022-09-03T17:50:01.188Z,34.00
2022-09-03T17:52:51.427Z,33.50
2022-09-03T17:56:06.471Z,33.00
2022-09-03T17:59:05.912Z,32.70
2022-09-03T18:02:05.528Z,32.20
2022-09-03T18:04:58.374Z,31.80
2022-09-03T18:08:05.099Z,31.40
2022-09-03T18:11:09.450Z,31.00
2022-09-03T18:14:18.275Z,30.60
2022-09-03T18:17:05.176Z,30.30
2022-09-03T18:20:19.012Z,29.90
2022-09-03T18:25:22.474Z,29.20
2022-09-03T18:28:31.230Z,29.00
2022-09-03T18:31:35.749Z,28.80
2022-09-03T18:34:49.805Z,28.50
2022-09-03T18:37:55.074Z,28.30
2022-09-03T18:41:15.191Z,28.00
2022-09-03T18:44:45.875Z,27.80
2022-09-03T18:48:20.191Z,27.60
2022-09-03T18:51:32.662Z,27.40
2022-09-03T18:55:06.718Z,27.20
2022-09-03T18:58:45.637Z,27.10
2022-09-03T19:01:58.269Z,26.90
2022-09-03T19:05:30.915Z,26.80
2022-09-03T19:08:54.167Z,26.70
2022-09-03T19:12:20.801Z,26.60
2022-09-03T19:15:32.686Z,26.50
2022-09-03T19:19:13.953Z,26.40
2022-09-03T19:22:27.256Z,26.30
2022-09-03T19:25:33.556Z,26.20
2022-09-03T19:28:47.529Z,26.10
2022-09-03T19:32:08.304Z,26.00
2022-09-03T19:35:35.633Z,25.90
2022-09-03T19:39:21.386Z,25.80
2022-09-03T19:42:51.649Z,25.80
2022-09-03T19:46:37.762Z,25.60
2022-09-03T19:50:02.141Z,25.50
2022-09-03T19:53:13.831Z,25.30
2022-09-03T19:56:27.472Z,25.20
2022-09-03T19:59:37.510Z,25.10
2022-09-03T20:02:45.404Z,25.00
2022-09-03T20:05:51.695Z,24.90
2022-09-03T20:08:56.076Z,24.80
2022-09-03T20:11:41.913Z,24.70
2022-09-03T20:14:36.594Z,24.50
2022-09-03T20:17:32.811Z,24.40
2022-09-03T20:20:58.652Z,24.30
2022-09-03T20:24:17.728Z,24.10
2022-09-03T20:27:38.048Z,24.00
2022-09-03T20:30:29.983Z,23.80
2022-09-03T20:33:40.216Z,23.70
2022-09-03T20:36:38.422Z,23.70
2022-09-03T20:39:43.704Z,23.60
2022-09-03T20:42:45.616Z,23.50
2022-09-03T20:46:09.599Z,23.40
2022-09-03T20:49:03.593Z,23.30
2022-09-03T20:52:07.603Z,23.20
2022-09-03T20:55:19.224Z,23.20
2022-09-03T20:58:30.514Z,23.10
2022-09-03T21:01:50.878Z,23.00
2022-09-03T21:04:53.897Z,22.90
2022-09-03T21:08:11.173Z,22.70
2022-09-03T21:11:02.071Z,22.60
2022-09-03T21:14:14.764Z,22.50
2022-09-03T21:17:02.821Z,22.40
2022-09-03T21:20:25.984Z,22.40
2022-09-03T21:23:22.087Z,22.20
2022-09-03T21:26:28.023Z,22.20
2022-09-03T21:29:23.908Z,22.10
2022-09-03T21:32:18.447Z,22.00
2022-09-03T21:35:15.032Z,21.90
2022-09-03T21:38:07.810Z,21.80
2022-09-03T21:40:59.774Z,21.70
2022-09-03T21:43:52.730Z,21.60
2022-09-03T21:46:54.976Z,21.60
2022-09-03T21:50:16.516Z,21.50
2022-09-03T21:53:35.661Z,21.40
2022-09-03T21:56:51.043Z,21.30
2022-09-03T21:59:51.265Z,21.20
2022-09-03T22:02:36.544Z,21.10
2022-09-03T22:05:22.253Z,21.10
2022-09-03T22:08:29.929Z,21.00
2022-09-03T22:11:33.770Z,21.00
2022-09-03T22:14:21.254Z,21.00
2022-09-03T22:17:13.047Z,20.90
2022-09-03T22:19:58.655Z,20.90
2022-09-03T22:23:00.318Z,20.80
2022-09-03T22:26:10.732Z,20.80
2022-09-03T22:29:40.326Z,20.80
2022-09-03T22:32:36.457Z,20.80
2022-09-03T22:35:52.843Z,20.70
2022-09-03T22:38:56.802Z,20.70
2022-09-03T22:42:08.382Z,20.80
2022-09-03T22:45:40.491Z,20.70
2022-09-03T22:48:40.139Z,20.70
2022-09-03T22:51:30.511Z,20.70
2022-09-03T22:54:33.891Z,20.70
2022-09-03T22:57:26.129Z,20.60
2022-09-03T23:00:14.725Z,20.60
2022-09-03T23:03:10.614Z,20.60
2022-09-03T23:06:08.636Z,20.50
2022-09-03T23:09:15.665Z,20.50
2022-09-03T23:12:05.152Z,20.50
2022-09-03T23:14:56.607Z,20.50
2022-09-03T23:17:52.349Z,20.50
2022-09-03T23:20:43.408Z,20.50
2022-09-03T23:23:34.433Z,20.50
2022-09-03T23:26:31.635Z,20.40
2022-09-03T23:29:20.720Z,20.40
2022-09-03T23:32:06.448Z,20.30
2022-09-03T23:34:51.719Z,20.30
2022-09-03T23:38:12.074Z,20.30
2022-09-03T23:41:04.100Z,20.30
2022-09-03T23:43:54.328Z,20.20
2022-09-03T23:47:02.110Z,20.20
2022-09-03T23:49:50.664Z,20.20
2022-09-03T23:53:09.220Z,20.20
2022-09-03T23:56:21.133Z,20.20
2022-09-03T23:59:23.039Z,20.20
